createdAt,value
2022-11-05T00:05:01.473Z,2.85
2022-11-05T00:10:29.736Z,7.00
2022-11-05T00:16:10.273Z,4.00
2022-11-05T00:21:54.069Z,4.95
2022-11-05T00:27:15.795Z,3.10
2022-11-05T00:32:37.567Z,6.22
2022-11-05T00:37:59.297Z,3.20
2022-11-05T00:43:39.306Z,1.92
2022-11-05T00:49:19.317Z,2.00
2022-11-05T00:54:41.060Z,1.52
2022-11-05T01:00:02.753Z,0.82
2022-11-05T01:05:24.620Z,1.67
2022-11-05T01:10:48.633Z,2.15
2022-11-05T01:16:10.783Z,3.17
2022-11-05T01:21:32.787Z,1.90
2022-11-05T01:26:54.471Z,1.88
2022-11-05T01:32:16.114Z,1.05
2022-11-05T01:37:38.202Z,0.90
2022-11-05T01:42:59.868Z,1.63
2022-11-05T01:48:37.942Z,1.08
2022-11-05T01:54:07.657Z,1.27
2022-11-05T01:59:44.537Z,1.55
2022-11-05T02:05:07.327Z,1.00
2022-11-05T02:10:29.325Z,1.40
2022-11-05T02:16:02.021Z,1.17
2022-11-05T02:21:46.854Z,0.52
2022-11-05T02:27:21.227Z,0.82
2022-11-05T02:33:06.434Z,1.45
2022-11-05T02:38:34.511Z,0.85
2022-11-05T02:44:24.568Z,1.45
2022-11-05T02:49:52.189Z,1.35
2022-11-05T02:55:19.124Z,1.02
2022-11-05T03:00:40.703Z,0.70
2022-11-05T03:06:18.114Z,0.63
2022-11-05T03:11:48.229Z,0.40
2022-11-05T03:17:16.852Z,2.35
2022-11-05T03:22:43.021Z,0.43
2022-11-05T03:28:08.128Z,0.65
2022-11-05T03:33:33.550Z,1.02
2022-11-05T03:38:58.304Z,1.92
2022-11-05T03:44:26.503Z,0.40
2022-11-05T03:50:14.111Z,0.40
2022-11-05T03:56:00.442Z,1.85
2022-11-05T04:01:22.220Z,0.25
2022-11-05T04:07:02.744Z,0.68
2022-11-05T04:12:42.767Z,0.98
2022-11-05T04:18:04.425Z,0.70
2022-11-05T04:23:44.440Z,0.88
2022-11-05T04:29:25.492Z,1.67
2022-11-05T04:34:47.130Z,0.40
2022-11-05T04:40:09.313Z,0.60
2022-11-05T04:45:34.505Z,0.80
2022-11-05T04:50:56.138Z,0.77
2022-11-05T04:56:25.058Z,0.85
2022-11-05T05:01:53.391Z,1.33
2022-11-05T05:07:15.221Z,0.70
2022-11-05T05:12:37.110Z,0.65
2022-11-05T05:17:59.806Z,0.60
2022-11-05T05:23:21.438Z,0.30
2022-11-05T05:28:43.106Z,0.20
2022-11-05T05:34:05.690Z,0.28
2022-11-05T05:39:27.688Z,0.10
2022-11-05T05:44:49.356Z,1.15
2022-11-05T05:50:11.040Z,0.30
2022-11-05T05:55:32.727Z,0.30
2022-11-05T06:00:55.037Z,0.50
2022-11-05T06:06:21.338Z,0.65
2022-11-05T06:11:43.001Z,0.30
2022-11-05T06:17:04.747Z,0.70
2022-11-05T06:22:26.466Z,1.38
2022-11-05T06:27:48.160Z,0.40
2022-11-05T06:33:10.142Z,0.52
2022-11-05T06:38:34.110Z,1.02
2022-11-05T06:43:55.790Z,0.43
2022-11-05T06:49:17.383Z,0.43
2022-11-05T06:54:39.653Z,2.05
2022-11-05T07:00:07.282Z,1.38
2022-11-05T07:05:29.666Z,0.20
2022-11-05T07:10:51.441Z,0.55
2022-11-05T07:16:13.186Z,0.32
2022-11-05T07:21:34.916Z,0.80
2022-11-05T07:26:56.553Z,0.52
2022-11-05T07:32:18.346Z,0.40
2022-11-05T07:37:47.291Z,0.60
2022-11-05T07:43:09.443Z,1.00
2022-11-05T07:48:31.282Z,0.95
2022-11-05T07:53:52.944Z,1.05
2022-11-05T07:59:14.614Z,1.85
2022-11-05T08:04:36.294Z,3.00
2022-11-05T08:09:57.938Z,0.80
2022-11-05T08:15:19.940Z,6.07
2022-11-05T08:20:43.990Z,2.63
2022-11-05T08:26:06.029Z,1.67
2022-11-05T08:31:27.914Z,4.20
2022-11-05T08:36:49.533Z,3.97
2022-11-05T08:42:11.226Z,5.30
2022-11-05T08:47:32.890Z,7.05
2022-11-05T08:52:54.872Z,12.48
2022-11-05T08:58:17.356Z,6.47
2022-11-05T09:03:41.370Z,13.23
2022-11-05T09:09:03.077Z,9.20
2022-11-05T09:14:27.846Z,9.82
2022-11-05T09:19:49.612Z,10.80
2022-11-05T09:25:11.670Z,12.77
2022-11-05T09:30:36.287Z,6.75
2022-11-05T09:35:59.957Z,9.43
2022-11-05T09:41:31.372Z,7.78
2022-11-05T09:46:59.592Z,8.55
2022-11-05T09:52:25.791Z,10.77
2022-11-05T09:57:54.797Z,12.52
2022-11-05T10:03:20.737Z,9.68
2022-11-05T10:08:45.115Z,11.82
2022-11-05T10:14:15.063Z,8.32
2022-11-05T10:20:20.517Z,9.63
2022-11-05T10:25:55.493Z,6.47
2022-11-05T10:31:21.245Z,8.02
2022-11-05T10:36:45.893Z,7.20
2022-11-05T10:42:44.529Z,10.20
2022-11-05T10:48:36.056Z,12.32
2022-11-05T10:54:06.662Z,11.15
2022-11-05T10:59:30.034Z,9.43
2022-11-05T11:04:56.697Z,8.15
2022-11-05T11:10:22.664Z,7.22
2022-11-05T11:15:44.338Z,5.20
2022-11-05T11:21:20.125Z,4.88
2022-11-05T11:26:42.295Z,6.60
2022-11-05T11:32:04.048Z,3.65
2022-11-05T11:37:33.447Z,4.68
2022-11-05T11:42:58.183Z,5.00
2022-11-05T11:48:24.916Z,4.10
2022-11-05T11:53:49.252Z,5.05
2022-11-05T12:00:07.314Z,7.50
2022-11-05T12:05:41.593Z,3.92
2022-11-05T12:11:15.626Z,3.67
2022-11-05T12:16:52.493Z,3.53
2022-11-05T12:22:32.803Z,3.25
2022-11-05T12:28:36.361Z,5.47
2022-11-05T12:34:19.146Z,4.95
2022-11-05T12:39:43.927Z,3.50
2022-11-05T12:45:27.333Z,6.97
2022-11-05T12:51:30.787Z,4.25
2022-11-05T12:56:59.459Z,6.07
2022-11-05T13:02:30.940Z,4.15
2022-11-05T13:08:14.991Z,2.78
2022-11-05T13:13:41.517Z,1.90
2022-11-05T13:19:25.510Z,3.08
2022-11-05T13:24:54.203Z,2.33
2022-11-05T13:30:20.837Z,5.50
2022-11-05T13:35:48.407Z,3.55
2022-11-05T13:41:33.351Z,1.33
2022-11-05T13:47:00.601Z,2.83
2022-11-05T13:52:27.871Z,3.90
2022-11-05T13:57:55.269Z,5.85
2022-11-05T14:03:20.287Z,3.95
2022-11-05T14:08:46.394Z,6.57
2022-11-05T14:14:17.652Z,2.65
2022-11-05T14:20:09.646Z,2.92
2022-11-05T14:25:34.043Z,4.15
2022-11-05T14:30:55.908Z,7.35
2022-11-05T14:36:20.380Z,5.07
2022-11-05T14:42:04.523Z,5.05
2022-11-05T14:47:30.974Z,3.70
2022-11-05T14:52:55.846Z,7.35
2022-11-05T14:58:29.404Z,4.10
2022-11-05T15:04:17.199Z,4.45
2022-11-05T15:09:47.668Z,3.13
2022-11-05T15:15:24.541Z,2.88
2022-11-05T15:20:48.895Z,4.78
2022-11-05T15:26:31.343Z,3.13
2022-11-05T15:31:53.509Z,3.58
2022-11-05T15:37:15.083Z,4.22
2022-11-05T15:42:36.705Z,3.65
2022-11-05T15:47:58.458Z,2.45
2022-11-05T15:54:23.894Z,3.50
2022-11-05T15:59:31.440Z,4.78
2022-11-05T16:04:53.370Z,3.67
2022-11-05T16:10:28.747Z,3.13
2022-11-05T16:15:59.265Z,6.17
2022-11-05T16:21:23.309Z,7.72
2022-11-05T16:32:30.982Z,4.18
2022-11-05T16:37:53.155Z,2.30
2022-11-05T16:43:20.591Z,5.47
2022-11-05T16:48:42.206Z,1.83
2022-11-05T16:54:04.438Z,4.65
2022-11-05T16:59:26.119Z,1.67
2022-11-05T17:04:47.837Z,3.85
2022-11-05T17:10:09.510Z,7.80
2022-11-05T17:15:35.819Z,3.75
2022-11-05T17:20:57.595Z,3.17
2022-11-05T17:26:19.231Z,5.93
2022-11-05T17:31:41.670Z,11.27
2022-11-05T17:37:03.374Z,14.50
2022-11-05T17:42:25.153Z,13.63
2022-11-05T17:47:46.898Z,9.88
2022-11-05T17:53:09.143Z,14.40
2022-11-05T17:58:30.909Z,8.60
2022-11-05T18:03:52.939Z,11.50
2022-11-05T18:09:15.219Z,13.57
2022-11-05T18:14:36.930Z,10.05
2022-11-05T18:19:58.586Z,9.73
2022-11-05T18:25:20.325Z,6.10
2022-11-05T18:30:42.088Z,8.65
2022-11-05T18:36:03.945Z,6.72
2022-11-05T18:41:26.174Z,4.97
2022-11-05T18:47:03.167Z,3.13
2022-11-05T18:52:26.782Z,6.72
2022-11-05T18:57:48.435Z,3.05
2022-11-05T19:03:10.095Z,7.78
2022-11-05T19:08:32.710Z,6.65
2022-11-05T19:13:54.776Z,3.80
2022-11-05T19:19:16.419Z,5.53
2022-11-05T19:24:38.072Z,2.85
2022-11-05T19:29:59.714Z,3.47
2022-11-05T19:35:21.554Z,2.85
2022-11-05T19:40:43.484Z,5.72
2022-11-05T19:46:10.201Z,3.83
2022-11-05T19:51:32.818Z,6.45
2022-11-05T19:56:54.458Z,2.55
2022-11-05T20:02:16.730Z,4.75
2022-11-05T20:07:38.602Z,2.38
2022-11-05T20:13:00.346Z,3.33
2022-11-05T20:18:22.156Z,4.25
2022-11-05T20:23:44.140Z,6.53
2022-11-05T20:29:06.227Z,4.20
2022-11-05T20:34:31.705Z,3.85
2022-11-05T20:45:14.899Z,2.00
2022-11-05T20:50:43.442Z,4.68
2022-11-05T20:56:08.809Z,6.13
2022-11-05T21:01:33.675Z,3.83
2022-11-05T21:06:57.542Z,4.85
2022-11-05T21:12:21.224Z,4.20
2022-11-05T21:17:44.144Z,4.57
2022-11-05T21:23:05.810Z,2.47
2022-11-05T21:28:27.462Z,3.35
2022-11-05T21:33:54.844Z,2.90
2022-11-05T21:39:17.190Z,3.40
2022-11-05T21:44:38.879Z,3.33
2022-11-05T21:50:00.577Z,4.72
2022-11-05T21:55:40.662Z,4.88
2022-11-05T22:01:03.165Z,2.63
2022-11-05T22:06:24.859Z,4.65
2022-11-05T22:11:46.504Z,3.25
2022-11-05T22:17:09.349Z,1.95
2022-11-05T22:22:31.066Z,2.53
2022-11-05T22:27:52.710Z,2.20
2022-11-05T22:33:14.386Z,2.35
2022-11-05T22:38:36.211Z,2.88
2022-11-05T22:43:58.535Z,1.90
2022-11-05T22:49:20.537Z,2.97
2022-11-05T22:54:42.172Z,1.52
2022-11-05T23:00:12.557Z,2.58
2022-11-05T23:05:34.195Z,5.57
2022-11-05T23:11:28.341Z,2.03
2022-11-05T23:17:09.009Z,1.58
2022-11-05T23:22:50.354Z,2.28
2022-11-05T23:28:13.034Z,2.25
2022-11-05T23:33:35.325Z,4.07
2022-11-05T23:38:56.959Z,2.63
2022-11-05T23:44:36.988Z,3.35
2022-11-05T23:49:58.607Z,3.05
2022-11-05T23:55:24.627Z,1.30
